createdAt,value
2022-10-30T00:08:06.101Z,29.9
2022-10-30T00:13:06.163Z,30.3
2022-10-30T00:18:05.990Z,30.0
2022-10-30T00:23:05.971Z,29.5
2022-10-30T00:28:06.142Z,29.3
2022-10-30T00:33:06.001Z,29.3
2022-10-30T00:38:05.984Z,28.1
2022-10-30T00:43:06.150Z,30.1
2022-10-30T00:48:05.960Z,30.8
2022-10-30T00:53:06.053Z,35.0
2022-10-30T01:03:05.968Z,34.8
2022-10-30T01:08:05.948Z,33.2
2022-10-30T01:18:05.962Z,34.1
2022-10-30T01:23:05.943Z,35.9
2022-10-30T01:28:06.153Z,36.5
2022-10-30T01:38:05.900Z,33.9
2022-10-30T01:43:05.960Z,36.2
2022-10-30T01:48:05.873Z,35.8
2022-10-30T01:53:05.979Z,36.7
2022-10-30T01:58:05.862Z,36.5
2022-10-30T02:03:05.905Z,52.8
2022-10-30T02:08:07.134Z,57.8
2022-10-30T02:13:06.584Z,47.2
2022-10-30T02:23:06.203Z,32.7
2022-10-30T02:28:06.017Z,30.9
2022-10-30T02:33:07.023Z,29.3
2022-10-30T02:38:06.550Z,30.8
2022-10-30T02:43:05.849Z,30.2
2022-10-30T02:48:05.801Z,30.4
2022-10-30T02:53:05.702Z,32.4
2022-10-30T03:03:05.744Z,33.0
2022-10-30T03:18:05.753Z,32.1
2022-10-30T03:23:05.857Z,33.3
2022-10-30T03:28:05.680Z,40.1
2022-10-30T03:38:05.808Z,36.8
2022-10-30T03:43:05.667Z,34.0
2022-10-30T04:03:06.384Z,40.9
2022-10-30T04:13:06.387Z,35.0
2022-10-30T04:23:05.547Z,36.8
2022-10-30T04:28:06.039Z,35.4
2022-10-30T04:33:05.637Z,30.9
2022-10-30T04:38:05.693Z,30.2
2022-10-30T04:48:05.652Z,30.0
2022-10-30T04:53:05.772Z,33.5
2022-10-30T04:58:05.685Z,30.9
2022-10-30T05:03:05.481Z,30.6
2022-10-30T05:08:05.746Z,29.9
2022-10-30T05:18:05.514Z,29.6
2022-10-30T05:23:05.855Z,30.4
2022-10-30T05:33:05.626Z,32.1
2022-10-30T05:38:06.171Z,33.6
2022-10-30T05:43:05.484Z,37.0
2022-10-30T05:48:06.233Z,36.0
2022-10-30T05:58:06.153Z,34.4
2022-10-30T06:03:06.261Z,90.2
2022-10-30T06:08:06.173Z,39.2
2022-10-30T06:13:06.123Z,37.8
2022-10-30T06:18:06.191Z,76.1
2022-10-30T06:23:06.272Z,79.9
2022-10-30T06:28:06.099Z,48.0
2022-10-30T06:33:06.176Z,35.2
2022-10-30T06:38:06.120Z,32.0
2022-10-30T06:43:05.453Z,36.2
2022-10-30T06:48:06.219Z,35.6
2022-10-30T06:53:05.469Z,37.1
2022-10-30T06:58:06.220Z,34.3
2022-10-30T07:03:05.428Z,37.2
2022-10-30T07:08:05.495Z,36.5
2022-10-30T07:13:06.352Z,34.5
2022-10-30T07:18:05.387Z,35.1
2022-10-30T07:23:05.515Z,32.9
2022-10-30T07:28:05.458Z,36.4
2022-10-30T07:33:06.067Z,38.0
2022-10-30T07:43:06.180Z,101.9
2022-10-30T07:48:05.405Z,45.1
2022-10-30T07:53:06.087Z,49.7
2022-10-30T07:58:06.067Z,46.3
2022-10-30T08:03:13.088Z,48.2
2022-10-30T08:08:05.962Z,45.6
2022-10-30T08:13:05.921Z,49.8
2022-10-30T08:18:05.862Z,45.9
2022-10-30T08:23:05.200Z,45.7
2022-10-30T08:33:05.892Z,46.3
2022-10-30T08:38:06.149Z,48.0
2022-10-30T08:43:05.793Z,51.3
2022-10-30T08:48:05.956Z,49.1
2022-10-30T08:53:05.871Z,59.8
2022-10-30T08:58:05.959Z,59.5
2022-10-30T09:03:06.081Z,64.9
2022-10-30T09:08:05.929Z,65.0
2022-10-30T09:13:05.990Z,60.3
2022-10-30T09:18:05.953Z,53.4
2022-10-30T09:23:05.930Z,57.7
2022-10-30T09:28:06.044Z,53.7
2022-10-30T09:33:06.057Z,53.9
2022-10-30T09:38:05.841Z,53.5
2022-10-30T09:43:05.836Z,53.6
2022-10-30T09:48:05.374Z,52.2
2022-10-30T09:53:05.116Z,47.3
2022-10-30T09:58:05.268Z,45.8
2022-10-30T10:03:05.110Z,42.6
2022-10-30T10:08:05.112Z,45.3
2022-10-30T10:13:05.614Z,45.4
2022-10-30T10:18:05.115Z,40.5
2022-10-30T10:28:05.157Z,41.8
2022-10-30T10:38:05.069Z,37.4
2022-10-30T10:43:04.963Z,33.7
2022-10-30T10:48:05.218Z,30.3
2022-10-30T10:53:05.031Z,30.1
2022-10-30T10:58:05.253Z,29.8
2022-10-30T11:03:04.980Z,28.8
2022-10-30T11:08:05.040Z,28.2
2022-10-30T11:13:05.259Z,30.2
2022-10-30T11:23:05.156Z,30.3
2022-10-30T11:28:04.870Z,27.0
2022-10-30T11:33:05.037Z,29.2
2022-10-30T11:38:04.926Z,25.3
2022-10-30T11:48:08.022Z,23.0
2022-10-30T11:53:04.934Z,21.4
2022-10-30T12:03:04.839Z,19.6
2022-10-30T12:08:04.971Z,19.8
2022-10-30T12:18:04.852Z,24.7
2022-10-30T12:23:04.767Z,24.4
2022-10-30T12:28:04.929Z,23.8
2022-10-30T12:33:04.779Z,19.0
2022-10-30T12:38:04.856Z,17.5
2022-10-30T12:43:04.885Z,18.5
2022-10-30T12:48:04.809Z,18.0
2022-10-30T12:53:04.750Z,15.7
2022-10-30T12:58:05.042Z,16.8
2022-10-30T13:03:04.875Z,17.1
2022-10-30T13:08:06.976Z,16.9
2022-10-30T13:13:05.013Z,13.9
2022-10-30T13:18:04.753Z,14.3
2022-10-30T13:23:04.864Z,14.5
2022-10-30T13:28:05.394Z,14.0
2022-10-30T13:38:04.786Z,14.0
2022-10-30T13:43:04.776Z,12.0
2022-10-30T13:48:04.740Z,12.5
2022-10-30T13:58:04.672Z,12.3
2022-10-30T14:03:04.983Z,11.4
2022-10-30T14:08:06.332Z,10.6
2022-10-30T14:13:04.782Z,11.0
2022-10-30T14:18:04.718Z,11.6
2022-10-30T14:28:04.607Z,12.6
2022-10-30T14:33:04.693Z,11.7
2022-10-30T14:38:05.828Z,12.5
2022-10-30T14:43:07.979Z,14.2
2022-10-30T14:48:05.737Z,29.9
2022-10-30T15:03:05.319Z,18.1
2022-10-30T15:08:05.909Z,21.7
2022-10-30T15:13:05.764Z,21.7
2022-10-30T15:18:05.071Z,16.5
2022-10-30T15:23:04.879Z,13.0
2022-10-30T15:28:05.186Z,12.4
2022-10-30T15:33:05.691Z,15.4
2022-10-30T15:43:04.852Z,17.0
2022-10-30T15:48:05.219Z,16.6
2022-10-30T15:53:04.691Z,22.7
2022-10-30T15:58:05.325Z,23.6
2022-10-30T16:03:05.303Z,25.7
2022-10-30T16:08:04.866Z,32.2
2022-10-30T16:13:05.627Z,33.3
2022-10-30T16:18:05.762Z,120.5
2022-10-30T16:28:05.674Z,80.5
2022-10-30T16:38:05.335Z,117.8
2022-10-30T16:43:06.694Z,156.6
2022-10-30T16:48:08.958Z,119.7
2022-10-30T16:53:05.958Z,87.6
2022-10-30T16:58:04.823Z,74.0
2022-10-30T17:03:05.560Z,47.9
2022-10-30T17:08:04.841Z,38.7
2022-10-30T17:13:04.504Z,32.5
2022-10-30T17:18:04.710Z,32.5
2022-10-30T17:28:05.250Z,39.7
2022-10-30T17:33:05.668Z,36.7
2022-10-30T17:38:04.951Z,64.2
2022-10-30T17:43:04.661Z,59.3
2022-10-30T17:48:04.495Z,30.5
2022-10-30T17:53:04.570Z,30.0
2022-10-30T17:58:04.444Z,30.2
2022-10-30T18:03:04.766Z,29.4
2022-10-30T18:08:04.938Z,35.0
2022-10-30T18:18:06.157Z,31.1
2022-10-30T18:23:05.002Z,29.0
2022-10-30T18:28:04.515Z,33.1
2022-10-30T18:33:05.552Z,52.5
2022-10-30T18:38:05.751Z,60.9
2022-10-30T18:43:15.424Z,63.3
2022-10-30T18:48:05.596Z,53.6
2022-10-30T18:53:05.059Z,33.3
2022-10-30T18:58:05.690Z,34.8
2022-10-30T19:08:05.413Z,40.4
2022-10-30T19:18:05.457Z,32.9
2022-10-30T19:23:04.768Z,32.0
2022-10-30T19:28:05.282Z,32.3
2022-10-30T19:33:04.893Z,36.9
2022-10-30T19:43:08.279Z,46.6
2022-10-30T19:53:04.255Z,48.9
2022-10-30T19:58:04.131Z,46.4
2022-10-30T20:08:04.700Z,30.7
2022-10-30T20:18:04.426Z,29.0
2022-10-30T20:33:05.072Z,28.6
2022-10-30T20:38:08.373Z,26.5
2022-10-30T20:43:04.248Z,28.9
2022-10-30T20:48:04.138Z,29.6
2022-10-30T20:53:04.047Z,31.2
2022-10-30T20:58:04.208Z,30.6
2022-10-30T21:08:04.192Z,35.5
2022-10-30T21:13:07.436Z,33.1
2022-10-30T21:18:04.186Z,31.5
2022-10-30T21:23:03.982Z,31.4
2022-10-30T21:28:04.052Z,30.4
2022-10-30T21:33:04.410Z,31.2
2022-10-30T21:43:04.645Z,32.0
2022-10-30T21:48:04.073Z,39.2
2022-10-30T21:53:03.955Z,40.8
2022-10-30T21:58:04.068Z,48.0
2022-10-30T23:03:04.825Z,61.8
2022-10-30T23:08:06.835Z,30.2
2022-10-30T23:13:04.025Z,31.1
2022-10-30T23:18:04.127Z,32.0
2022-10-30T23:23:03.796Z,31.3
2022-10-30T23:28:05.358Z,30.5
2022-10-30T23:33:04.067Z,67.1
2022-10-30T23:38:03.814Z,37.0
2022-10-30T23:43:04.238Z,31.7
2022-10-30T23:48:04.246Z,29.0
2022-10-30T23:53:04.097Z,28.0
2022-10-30T23:58:04.099Z,29.2
